sensor_id;sensor_type;location;lat;lon;timestamp;pressure;altitude;pressure_sealevel;temperature;humidity
57574;BME280;43409;48.858;21.906;2022-07-30T00:01:39;98585.97;;;26.60;51.56
57574;BME280;43409;48.858;21.906;2022-07-30T00:04:05;98595.63;;;26.61;51.49
57574;BME280;43409;48.858;21.906;2022-07-30T00:06:30;98596.50;;;26.56;51.47
57574;BME280;43409;48.858;21.906;2022-07-30T00:08:56;98591.13;;;26.56;51.66
57574;BME280;43409;48.858;21.906;2022-07-30T00:11:22;98597.00;;;26.58;51.88
57574;BME280;43409;48.858;21.906;2022-07-30T00:13:48;98599.41;;;26.60;51.50
57574;BME280;43409;48.858;21.906;2022-07-30T00:16:14;98596.44;;;26.61;51.79
57574;BME280;43409;48.858;21.906;2022-07-30T00:18:39;98590.47;;;26.65;51.65
57574;BME280;43409;48.858;21.906;2022-07-30T00:21:05;98580.88;;;26.58;51.49
57574;BME280;43409;48.858;21.906;2022-07-30T00:23:30;98579.78;;;26.59;51.74
57574;BME280;43409;48.858;21.906;2022-07-30T00:25:56;98565.56;;;26.59;51.61
57574;BME280;43409;48.858;21.906;2022-07-30T00:28:22;98569.31;;;26.58;51.63
57574;BME280;43409;48.858;21.906;2022-07-30T00:30:47;98568.84;;;26.51;51.88
57574;BME280;43409;48.858;21.906;2022-07-30T00:33:12;98583.84;;;26.57;51.67
57574;BME280;43409;48.858;21.906;2022-07-30T00:35:38;98596.00;;;26.54;51.67
57574;BME280;43409;48.858;21.906;2022-07-30T00:38:03;98601.81;;;26.61;51.48
57574;BME280;43409;48.858;21.906;2022-07-30T00:40:29;98597.50;;;26.66;51.47
57574;BME280;43409;48.858;21.906;2022-07-30T00:42:54;98595.31;;;26.68;51.47
57574;BME280;43409;48.858;21.906;2022-07-30T00:45:20;98594.25;;;26.69;51.21
57574;BME280;43409;48.858;21.906;2022-07-30T00:47:45;98586.47;;;26.67;51.21
57574;BME280;43409;48.858;21.906;2022-07-30T00:50:13;98579.19;;;26.68;51.58
57574;BME280;43409;48.858;21.906;2022-07-30T00:52:39;98568.41;;;26.68;51.23
57574;BME280;43409;48.858;21.906;2022-07-30T00:55:08;98559.84;;;26.66;51.21
57574;BME280;43409;48.858;21.906;2022-07-30T00:57:33;98565.44;;;26.69;51.13
57574;BME280;43409;48.858;21.906;2022-07-30T00:59:59;98555.78;;;26.68;51.11
57574;BME280;43409;48.858;21.906;2022-07-30T01:02:24;98553.41;;;26.67;51.13
57574;BME280;43409;48.858;21.906;2022-07-30T01:04:50;98553.59;;;26.70;51.50
57574;BME280;43409;48.858;21.906;2022-07-30T01:07:15;98542.63;;;26.67;51.41
57574;BME280;43409;48.858;21.906;2022-07-30T01:09:40;98542.56;;;26.72;50.99
57574;BME280;43409;48.858;21.906;2022-07-30T01:12:07;98537.97;;;26.72;51.35
57574;BME280;43409;48.858;21.906;2022-07-30T01:14:34;98545.31;;;26.67;51.10
57574;BME280;43409;48.858;21.906;2022-07-30T01:17:00;98537.34;;;26.56;51.82
57574;BME280;43409;48.858;21.906;2022-07-30T01:19:31;98545.63;;;26.60;51.43
57574;BME280;43409;48.858;21.906;2022-07-30T01:25:20;98528.38;;;26.66;51.33
57574;BME280;43409;48.858;21.906;2022-07-30T01:27:47;98519.25;;;26.62;51.46
57574;BME280;43409;48.858;21.906;2022-07-30T01:30:16;98506.84;;;26.66;51.39
57574;BME280;43409;48.858;21.906;2022-07-30T01:32:43;98497.50;;;26.58;51.67
57574;BME280;43409;48.858;21.906;2022-07-30T01:35:11;98491.53;;;26.61;51.21
57574;BME280;43409;48.858;21.906;2022-07-30T01:37:39;98476.84;;;26.54;51.77
57574;BME280;43409;48.858;21.906;2022-07-30T01:40:07;98481.22;;;26.50;52.05
57574;BME280;43409;48.858;21.906;2022-07-30T01:42:35;98464.34;;;26.44;51.77
57574;BME280;43409;48.858;21.906;2022-07-30T01:45:02;98456.50;;;26.48;52.16
57574;BME280;43409;48.858;21.906;2022-07-30T01:47:32;98456.19;;;26.49;51.99
57574;BME280;43409;48.858;21.906;2022-07-30T01:49:58;98450.78;;;26.54;52.15
57574;BME280;43409;48.858;21.906;2022-07-30T01:52:26;98434.84;;;26.58;51.53
57574;BME280;43409;48.858;21.906;2022-07-30T01:54:55;98435.06;;;26.61;51.36
57574;BME280;43409;48.858;21.906;2022-07-30T01:57:23;98424.84;;;26.63;51.62
57574;BME280;43409;48.858;21.906;2022-07-30T01:59:53;98430.75;;;26.66;51.17
57574;BME280;43409;48.858;21.906;2022-07-30T02:02:19;98422.16;;;26.63;51.43
57574;BME280;43409;48.858;21.906;2022-07-30T02:04:45;98416.47;;;26.65;51.07
57574;BME280;43409;48.858;21.906;2022-07-30T02:07:56;98411.41;;;26.63;51.33
57574;BME280;43409;48.858;21.906;2022-07-30T02:12:59;98405.47;;;26.67;51.57
57574;BME280;43409;48.858;21.906;2022-07-30T02:15:37;98408.16;;;26.67;51.63
57574;BME280;43409;48.858;21.906;2022-07-30T02:20:32;98392.03;;;26.61;51.86
57574;BME280;43409;48.858;21.906;2022-07-30T02:23:02;98386.94;;;26.60;51.69
57574;BME280;43409;48.858;21.906;2022-07-30T02:25:32;98381.53;;;26.65;51.91
57574;BME280;43409;48.858;21.906;2022-07-30T02:28:02;98377.00;;;26.60;51.83
57574;BME280;43409;48.858;21.906;2022-07-30T02:30:31;98363.56;;;26.60;52.16
57574;BME280;43409;48.858;21.906;2022-07-30T02:33:02;98366.75;;;26.62;52.04
57574;BME280;43409;48.858;21.906;2022-07-30T02:35:30;98370.31;;;26.58;52.00
57574;BME280;43409;48.858;21.906;2022-07-30T02:37:56;98364.94;;;26.58;52.26
57574;BME280;43409;48.858;21.906;2022-07-30T02:40:24;98369.75;;;26.61;51.87
57574;BME280;43409;48.858;21.906;2022-07-30T02:42:52;98373.50;;;26.60;52.52
57574;BME280;43409;48.858;21.906;2022-07-30T02:45:18;98367.34;;;26.59;52.33
57574;BME280;43409;48.858;21.906;2022-07-30T02:47:47;98369.53;;;26.57;52.28
57574;BME280;43409;48.858;21.906;2022-07-30T02:50:16;98366.91;;;26.52;52.70
57574;BME280;43409;48.858;21.906;2022-07-30T02:52:43;98377.88;;;26.56;52.64
57574;BME280;43409;48.858;21.906;2022-07-30T02:55:11;98384.13;;;26.51;52.57
57574;BME280;43409;48.858;21.906;2022-07-30T02:57:38;98380.88;;;26.54;52.80
57574;BME280;43409;48.858;21.906;2022-07-30T03:00:06;98375.41;;;26.59;52.54
57574;BME280;43409;48.858;21.906;2022-07-30T03:02:32;98365.16;;;26.61;52.19
57574;BME280;43409;48.858;21.906;2022-07-30T03:05:00;98365.16;;;26.61;52.28
57574;BME280;43409;48.858;21.906;2022-07-30T03:07:27;98365.16;;;26.61;52.32
57574;BME280;43409;48.858;21.906;2022-07-30T03:09:54;98364.72;;;26.54;52.10
57574;BME280;43409;48.858;21.906;2022-07-30T03:12:21;98353.16;;;26.54;52.30
57574;BME280;43409;48.858;21.906;2022-07-30T03:14:48;98364.94;;;26.58;52.25
57574;BME280;43409;48.858;21.906;2022-07-30T03:17:15;98366.25;;;26.60;52.19
57574;BME280;43409;48.858;21.906;2022-07-30T03:19:41;98367.34;;;26.59;52.30
57574;BME280;43409;48.858;21.906;2022-07-30T03:22:09;98374.00;;;26.43;52.73
57574;BME280;43409;48.858;21.906;2022-07-30T03:24:37;98380.88;;;26.54;52.58
57574;BME280;43409;48.858;21.906;2022-07-30T03:27:03;98371.31;;;26.43;52.69
57574;BME280;43409;48.858;21.906;2022-07-30T03:29:30;98370.81;;;26.41;53.13
57574;BME280;43409;48.858;21.906;2022-07-30T03:31:56;98371.69;;;26.55;52.41
57574;BME280;43409;48.858;21.906;2022-07-30T03:34:23;98379.34;;;26.48;53.02
57574;BME280;43409;48.858;21.906;2022-07-30T03:36:50;98377.94;;;26.51;53.02
57574;BME280;43409;48.858;21.906;2022-07-30T03:39:16;98373.38;;;26.51;52.70
57574;BME280;43409;48.858;21.906;2022-07-30T03:41:42;98384.78;;;26.43;52.98
57574;BME280;43409;48.858;21.906;2022-07-30T03:44:09;98386.88;;;26.46;52.65
57574;BME280;43409;48.858;21.906;2022-07-30T03:46:36;98391.25;;;26.61;52.24
57574;BME280;43409;48.858;21.906;2022-07-30T03:49:02;98398.41;;;26.90;51.51
57574;BME280;43409;48.858;21.906;2022-07-30T03:51:31;98398.56;;;27.12;50.89
57574;BME280;43409;48.858;21.906;2022-07-30T03:53:57;98399.28;;;27.18;50.63
57574;BME280;43409;48.858;21.906;2022-07-30T03:56:23;98390.94;;;27.20;50.34
57574;BME280;43409;48.858;21.906;2022-07-30T03:58:49;98393.13;;;27.18;50.73
57574;BME280;43409;48.858;21.906;2022-07-30T04:01:14;98392.00;;;27.19;50.29
57574;BME280;43409;48.858;21.906;2022-07-30T04:03:40;98387.84;;;26.93;51.28
57574;BME280;43409;48.858;21.906;2022-07-30T04:06:05;98384.81;;;26.81;51.58
57574;BME280;43409;48.858;21.906;2022-07-30T04:08:31;98375.78;;;26.72;51.85
57574;BME280;43409;48.858;21.906;2022-07-30T04:10:57;98372.38;;;26.66;52.04
57574;BME280;43409;48.858;21.906;2022-07-30T04:13:22;98377.69;;;26.71;52.14
57574;BME280;43409;48.858;21.906;2022-07-30T04:15:55;98386.56;;;26.72;51.89
57574;BME280;43409;48.858;21.906;2022-07-30T04:18:25;98382.59;;;26.83;51.58
57574;BME280;43409;48.858;21.906;2022-07-30T04:20:52;98379.78;;;26.93;51.11
57574;BME280;43409;48.858;21.906;2022-07-30T04:23:19;98392.63;;;26.96;51.10
57574;BME280;43409;48.858;21.906;2022-07-30T04:25:44;98391.63;;;26.92;50.76
57574;BME280;43409;48.858;21.906;2022-07-30T04:28:11;98396.78;;;26.89;51.19
57574;BME280;43409;48.858;21.906;2022-07-30T04:30:38;98397.97;;;26.83;51.18
57574;BME280;43409;48.858;21.906;2022-07-30T04:33:05;98396.22;;;26.92;50.78
57574;BME280;43409;48.858;21.906;2022-07-30T04:35:33;98402.31;;;26.97;50.82
57574;BME280;43409;48.858;21.906;2022-07-30T04:37:59;98399.03;;;27.01;50.81
57574;BME280;43409;48.858;21.906;2022-07-30T04:40:27;98397.34;;;27.05;50.83
57574;BME280;43409;48.858;21.906;2022-07-30T04:42:52;98398.94;;;27.06;50.66
57574;BME280;43409;48.858;21.906;2022-07-30T04:45:17;98384.31;;;27.12;50.53
57574;BME280;43409;48.858;21.906;2022-07-30T04:47:45;98380.44;;;27.18;50.15
57574;BME280;43409;48.858;21.906;2022-07-30T04:50:11;98370.41;;;27.24;50.10
57574;BME280;43409;48.858;21.906;2022-07-30T04:52:38;98372.22;;;27.28;50.17
57574;BME280;43409;48.858;21.906;2022-07-30T04:55:05;98377.91;;;27.27;50.23
57574;BME280;43409;48.858;21.906;2022-07-30T04:57:32;98379.03;;;27.07;50.70
57574;BME280;43409;48.858;21.906;2022-07-30T05:00:00;98382.22;;;27.09;50.53
57574;BME280;43409;48.858;21.906;2022-07-30T05:02:29;98384.41;;;27.07;51.03
57574;BME280;43409;48.858;21.906;2022-07-30T05:04:57;98379.81;;;27.07;50.45
57574;BME280;43409;48.858;21.906;2022-07-30T05:07:23;98385.50;;;27.06;50.66
57574;BME280;43409;48.858;21.906;2022-07-30T05:09:50;98385.28;;;27.02;50.62
57574;BME280;43409;48.858;21.906;2022-07-30T05:12:15;98389.84;;;27.02;50.68
57574;BME280;43409;48.858;21.906;2022-07-30T05:14:41;98387.16;;;27.02;50.75
57574;BME280;43409;48.858;21.906;2022-07-30T05:17:06;98388.78;;;27.03;50.34
57574;BME280;43409;48.858;21.906;2022-07-30T05:19:32;98384.78;;;27.00;50.80
57574;BME280;43409;48.858;21.906;2022-07-30T05:21:57;98382.66;;;26.97;50.74
57574;BME280;43409;48.858;21.906;2022-07-30T05:24:23;98384.06;;;26.94;50.73
57574;BME280;43409;48.858;21.906;2022-07-30T05:26:48;98389.16;;;26.96;50.73
57574;BME280;43409;48.858;21.906;2022-07-30T05:29:14;98387.84;;;26.93;50.54
57574;BME280;43409;48.858;21.906;2022-07-30T05:31:40;98397.22;;;26.96;50.91
57574;BME280;43409;48.858;21.906;2022-07-30T05:34:05;98391.03;;;26.95;50.71
57574;BME280;43409;48.858;21.906;2022-07-30T05:36:31;98400.81;;;26.91;50.93
57574;BME280;43409;48.858;21.906;2022-07-30T05:38:57;98407.47;;;26.94;50.96
57574;BME280;43409;48.858;21.906;2022-07-30T05:41:23;98405.94;;;26.88;50.95
57574;BME280;43409;48.858;21.906;2022-07-30T05:43:49;98413.53;;;26.86;50.98
57574;BME280;43409;48.858;21.906;2022-07-30T05:46:14;98411.56;;;26.91;51.00
57574;BME280;43409;48.858;21.906;2022-07-30T05:48:39;98414.31;;;26.86;50.84
57574;BME280;43409;48.858;21.906;2022-07-30T05:51:05;98420.06;;;26.79;51.67
57574;BME280;43409;48.858;21.906;2022-07-30T05:53:31;98421.16;;;26.78;51.23
57574;BME280;43409;48.858;21.906;2022-07-30T05:55:57;98428.63;;;26.82;51.31
57574;BME280;43409;48.858;21.906;2022-07-30T05:58:22;98431.03;;;26.83;51.56
57574;BME280;43409;48.858;21.906;2022-07-30T06:00:48;98420.28;;;26.83;51.24
57574;BME280;43409;48.858;21.906;2022-07-30T06:03:14;98417.09;;;26.81;51.22
57574;BME280;43409;48.858;21.906;2022-07-30T06:05:39;98421.88;;;26.84;51.24
57574;BME280;43409;48.858;21.906;2022-07-30T06:08:05;98426.25;;;26.80;51.61
57574;BME280;43409;48.858;21.906;2022-07-30T06:10:31;98422.47;;;26.81;51.30
57574;BME280;43409;48.858;21.906;2022-07-30T06:12:57;98424.88;;;26.83;51.32
57574;BME280;43409;48.858;21.906;2022-07-30T06:15:23;98425.94;;;26.82;51.45
57574;BME280;43409;48.858;21.906;2022-07-30T06:17:49;98417.09;;;26.81;51.60
57574;BME280;43409;48.858;21.906;2022-07-30T06:20:16;98419.28;;;26.79;51.67
57574;BME280;43409;48.858;21.906;2022-07-30T06:22:42;98423.03;;;26.78;51.34
57574;BME280;43409;48.858;21.906;2022-07-30T06:25:08;98424.06;;;26.82;51.26
57574;BME280;43409;48.858;21.906;2022-07-30T06:27:34;98429.66;;;26.86;51.28
57574;BME280;43409;48.858;21.906;2022-07-30T06:30:01;98427.84;;;26.81;51.58
57574;BME280;43409;48.858;21.906;2022-07-30T06:32:26;98422.47;;;26.81;51.55
57574;BME280;43409;48.858;21.906;2022-07-30T06:34:52;98422.31;;;26.91;51.54
57574;BME280;43409;48.858;21.906;2022-07-30T06:37:17;98420.03;;;26.98;50.99
57574;BME280;43409;48.858;21.906;2022-07-30T06:39:42;98417.72;;;26.92;51.23
57574;BME280;43409;48.858;21.906;2022-07-30T06:42:08;98421.31;;;26.87;51.27
57574;BME280;43409;48.858;21.906;2022-07-30T06:44:33;98414.03;;;26.88;51.21
57574;BME280;43409;48.858;21.906;2022-07-30T06:46:59;98410.53;;;26.87;51.52
57574;BME280;43409;48.858;21.906;2022-07-30T06:49:24;98408.44;;;26.84;51.77
57574;BME280;43409;48.858;21.906;2022-07-30T06:51:50;98405.59;;;26.94;51.11
57574;BME280;43409;48.858;21.906;2022-07-30T06:54:15;98407.13;;;27.01;50.86
57574;BME280;43409;48.858;21.906;2022-07-30T06:56:41;98409.81;;;27.01;50.77
57574;BME280;43409;48.858;21.906;2022-07-30T06:59:06;98407.31;;;27.04;50.73
57574;BME280;43409;48.858;21.906;2022-07-30T07:01:32;98413.44;;;27.10;50.74
57574;BME280;43409;48.858;21.906;2022-07-30T07:03:57;98407.53;;;27.08;50.58
57574;BME280;43409;48.858;21.906;2022-07-30T07:06:23;98398.06;;;27.10;50.42
57574;BME280;43409;48.858;21.906;2022-07-30T07:08:48;98403.16;;;27.12;50.07
57574;BME280;43409;48.858;21.906;2022-07-30T07:11:14;98394.06;;;27.08;50.31
57574;BME280;43409;48.858;21.906;2022-07-30T07:13:39;98398.94;;;27.06;50.63
57574;BME280;43409;48.858;21.906;2022-07-30T07:16:04;98390.00;;;27.10;50.58
57574;BME280;43409;48.858;21.906;2022-07-30T07:18:30;98391.38;;;27.08;50.03
57574;BME280;43409;48.858;21.906;2022-07-30T07:20:55;98393.28;;;27.07;50.28
57574;BME280;43409;48.858;21.906;2022-07-30T07:23:21;98389.22;;;27.10;49.99
57574;BME280;43409;48.858;21.906;2022-07-30T07:25:46;98381.63;;;27.12;49.92
57574;BME280;43409;48.858;21.906;2022-07-30T07:28:11;98379.72;;;27.12;50.44
57574;BME280;43409;48.858;21.906;2022-07-30T07:30:37;98376.34;;;27.07;50.41
57574;BME280;43409;48.858;21.906;2022-07-30T07:33:03;98370.97;;;27.07;50.29
57574;BME280;43409;48.858;21.906;2022-07-30T07:35:28;98364.56;;;27.03;50.47
57574;BME280;43409;48.858;21.906;2022-07-30T07:37:53;98361.88;;;27.03;50.38
57574;BME280;43409;48.858;21.906;2022-07-30T07:40:19;98361.47;;;27.09;50.42
57574;BME280;43409;48.858;21.906;2022-07-30T07:42:44;98364.41;;;27.13;50.48
57574;BME280;43409;48.858;21.906;2022-07-30T07:45:10;98357.84;;;27.19;50.02
57574;BME280;43409;48.858;21.906;2022-07-30T07:47:46;98347.47;;;27.26;49.82
57574;BME280;43409;48.858;21.906;2022-07-30T07:50:16;98353.06;;;27.30;49.25
57574;BME280;43409;48.858;21.906;2022-07-30T07:52:42;98347.91;;;27.33;49.36
57574;BME280;43409;48.858;21.906;2022-07-30T07:55:08;98348.22;;;27.32;49.56
57574;BME280;43409;48.858;21.906;2022-07-30T07:57:40;98348.94;;;27.38;49.34
57574;BME280;43409;48.858;21.906;2022-07-30T08:00:08;98344.81;;;27.40;49.47
57574;BME280;43409;48.858;21.906;2022-07-30T08:02:34;98338.34;;;27.41;49.32
57574;BME280;43409;48.858;21.906;2022-07-30T08:05:00;98336.16;;;27.43;49.68
57574;BME280;43409;48.858;21.906;2022-07-30T08:07:26;98331.59;;;27.44;49.51
57574;BME280;43409;48.858;21.906;2022-07-30T08:09:51;98327.78;;;27.45;49.57
57574;BME280;43409;48.858;21.906;2022-07-30T08:12:17;98330.16;;;27.46;49.49
57574;BME280;43409;48.858;21.906;2022-07-30T08:14:42;98324.09;;;27.41;49.87
57574;BME280;43409;48.858;21.906;2022-07-30T08:17:07;98315.44;;;27.44;49.55
57574;BME280;43409;48.858;21.906;2022-07-30T08:19:33;98320.22;;;27.47;49.70
57574;BME280;43409;48.858;21.906;2022-07-30T08:21:59;98312.44;;;27.45;50.12
57574;BME280;43409;48.858;21.906;2022-07-30T08:24:24;98319.41;;;27.46;49.81
57574;BME280;43409;48.858;21.906;2022-07-30T08:26:50;98313.22;;;27.46;49.53
57574;BME280;43409;48.858;21.906;2022-07-30T08:29:15;98304.56;;;27.49;49.41
57574;BME280;43409;48.858;21.906;2022-07-30T08:31:41;98304.56;;;27.49;49.43
57574;BME280;43409;48.858;21.906;2022-07-30T08:34:07;98309.34;;;27.52;49.87
57574;BME280;43409;48.858;21.906;2022-07-30T08:36:32;98306.16;;;27.50;49.41
57574;BME280;43409;48.858;21.906;2022-07-30T08:38:58;98300.25;;;27.48;49.60
57574;BME280;43409;48.858;21.906;2022-07-30T08:41:24;98307.25;;;27.49;49.67
57574;BME280;43409;48.858;21.906;2022-07-30T08:43:50;98302.34;;;27.51;49.59
57574;BME280;43409;48.858;21.906;2022-07-30T08:46:17;98308.03;;;27.49;50.13
57574;BME280;43409;48.858;21.906;2022-07-30T08:48:43;98296.47;;;27.49;50.13
57574;BME280;43409;48.858;21.906;2022-07-30T08:51:09;98298.88;;;27.50;50.07
57574;BME280;43409;48.858;21.906;2022-07-30T08:53:35;98287.59;;;27.48;49.76
57574;BME280;43409;48.858;21.906;2022-07-30T08:56:02;98283.50;;;27.51;49.75
57574;BME280;43409;48.858;21.906;2022-07-30T08:58:30;98284.00;;;27.53;50.51
57574;BME280;43409;48.858;21.906;2022-07-30T09:00:56;98288.28;;;27.54;50.07
57574;BME280;43409;48.858;21.906;2022-07-30T09:03:22;98299.06;;;27.54;50.25
57574;BME280;43409;48.858;21.906;2022-07-30T09:05:48;98289.41;;;27.53;50.04
57574;BME280;43409;48.858;21.906;2022-07-30T09:08:14;98283.78;;;27.49;50.01
57574;BME280;43409;48.858;21.906;2022-07-30T09:10:40;98285.88;;;27.52;49.71
57574;BME280;43409;48.858;21.906;2022-07-30T09:13:22;98275.13;;;27.52;49.84
57574;BME280;43409;48.858;21.906;2022-07-30T09:15:48;98277.50;;;27.54;49.57
57574;BME280;43409;48.858;21.906;2022-07-30T09:18:25;98278.31;;;27.55;49.45
57574;BME280;43409;48.858;21.906;2022-07-30T09:20:51;98277.50;;;27.54;49.54
57574;BME280;43409;48.858;21.906;2022-07-30T09:23:16;98277.72;;;27.58;49.56
57574;BME280;43409;48.858;21.906;2022-07-30T09:25:44;98273.91;;;27.59;49.03
57574;BME280;43409;48.858;21.906;2022-07-30T09:28:10;98276.13;;;27.57;49.26
57574;BME280;43409;48.858;21.906;2022-07-30T09:33:14;98273.13;;;27.58;49.31
57574;BME280;43409;48.858;21.906;2022-07-30T09:35:41;98268.84;;;27.57;49.47
57574;BME280;43409;48.858;21.906;2022-07-30T09:38:07;98269.34;;;27.59;49.09
57574;BME280;43409;48.858;21.906;2022-07-30T09:40:33;98269.03;;;27.61;49.47
57574;BME280;43409;48.858;21.906;2022-07-30T09:43:06;98267.75;;;27.58;49.36
57574;BME280;43409;48.858;21.906;2022-07-30T09:45:33;98260.16;;;27.60;49.55
57574;BME280;43409;48.858;21.906;2022-07-30T09:47:59;98257.16;;;27.62;49.35
57574;BME280;43409;48.858;21.906;2022-07-30T09:50:25;98262.25;;;27.63;49.20
57574;BME280;43409;48.858;21.906;2022-07-30T09:52:52;98258.47;;;27.64;49.06
57574;BME280;43409;48.858;21.906;2022-07-30T09:55:32;98253.06;;;27.64;48.90
57574;BME280;43409;48.858;21.906;2022-07-30T09:58:05;98254.16;;;27.63;48.09
57574;BME280;43409;48.858;21.906;2022-07-30T10:00:33;98245.78;;;27.65;47.65
57574;BME280;43409;48.858;21.906;2022-07-30T10:02:59;98259.75;;;27.67;47.56
57574;BME280;43409;48.858;21.906;2022-07-30T10:05:26;98257.25;;;27.71;48.08
57574;BME280;43409;48.858;21.906;2022-07-30T10:07:58;98247.56;;;27.69;49.39
57574;BME280;43409;48.858;21.906;2022-07-30T10:10:29;98247.56;;;27.69;49.53
57574;BME280;43409;48.858;21.906;2022-07-30T10:13:00;98249.19;;;27.71;49.46
57574;BME280;43409;48.858;21.906;2022-07-30T10:15:34;98240.59;;;27.68;50.37
57574;BME280;43409;48.858;21.906;2022-07-30T10:18:00;98243.00;;;27.70;50.19
57574;BME280;43409;48.858;21.906;2022-07-30T10:20:26;98246.78;;;27.69;49.83
57574;BME280;43409;48.858;21.906;2022-07-30T10:22:52;98240.31;;;27.70;49.70
57574;BME280;43409;48.858;21.906;2022-07-30T10:25:23;98233.00;;;27.71;49.67
57574;BME280;43409;48.858;21.906;2022-07-30T10:27:50;98227.22;;;27.63;49.51
57574;BME280;43409;48.858;21.906;2022-07-30T10:30:17;98227.63;;;27.71;49.30
57574;BME280;43409;48.858;21.906;2022-07-30T10:32:44;98222.53;;;27.69;48.92
57574;BME280;43409;48.858;21.906;2022-07-30T10:35:11;98233.00;;;27.71;49.13
57574;BME280;43409;48.858;21.906;2022-07-30T10:37:40;98229.22;;;27.72;49.05
57574;BME280;43409;48.858;21.906;2022-07-30T10:40:20;98235.22;;;27.68;48.78
57574;BME280;43409;48.858;21.906;2022-07-30T10:47:59;98230.03;;;27.72;48.07
57574;BME280;43409;48.858;21.906;2022-07-30T10:50:26;98217.34;;;27.73;48.23
57574;BME280;43409;48.858;21.906;2022-07-30T10:52:59;98219.53;;;27.71;47.87
57574;BME280;43409;48.858;21.906;2022-07-30T10:55:30;98227.63;;;27.71;48.56
57574;BME280;43409;48.858;21.906;2022-07-30T10:58:03;98230.31;;;27.71;48.28
57574;BME280;43409;48.858;21.906;2022-07-30T11:00:32;98226.84;;;27.70;47.77
57574;BME280;43409;48.858;21.906;2022-07-30T11:05:41;98229.63;;;27.65;48.42
57574;BME280;43409;48.858;21.906;2022-07-30T11:10:57;98229.13;;;27.63;49.37
57574;BME280;43409;48.858;21.906;2022-07-30T11:16:14;98208.91;;;27.51;50.57
57574;BME280;43409;48.858;21.906;2022-07-30T11:19:01;98199.72;;;27.52;50.99
57574;BME280;43409;48.858;21.906;2022-07-30T11:21:28;98205.22;;;27.47;50.91
57574;BME280;43409;48.858;21.906;2022-07-30T11:23:53;98204.72;;;27.45;51.85
57574;BME280;43409;48.858;21.906;2022-07-30T11:29:03;98207.72;;;27.44;51.81
57574;BME280;43409;48.858;21.906;2022-07-30T11:31:31;98227.66;;;27.43;52.33
57574;BME280;43409;48.858;21.906;2022-07-30T11:37:03;98248.28;;;27.47;51.77
57574;BME280;43409;48.858;21.906;2022-07-30T11:44:49;98220.19;;;27.40;52.20
57574;BME280;43409;48.858;21.906;2022-07-30T11:47:15;98219.59;;;27.43;52.36
57574;BME280;43409;48.858;21.906;2022-07-30T11:49:42;98218.28;;;27.40;52.46
57574;BME280;43409;48.858;21.906;2022-07-30T11:52:07;98221.78;;;27.41;52.88
57574;BME280;43409;48.858;21.906;2022-07-30T11:54:50;98212.69;;;27.37;53.12
57574;BME280;43409;48.858;21.906;2022-07-30T11:57:15;98211.31;;;27.39;53.51
57574;BME280;43409;48.858;21.906;2022-07-30T11:59:54;98206.91;;;27.43;53.71
57574;BME280;43409;48.858;21.906;2022-07-30T12:02:26;98205.63;;;27.41;54.15
57574;BME280;43409;48.858;21.906;2022-07-30T12:04:51;98200.72;;;27.43;54.29
57574;BME280;43409;48.858;21.906;2022-07-30T12:07:22;98186.69;;;27.32;54.49
57574;BME280;43409;48.858;21.906;2022-07-30T12:09:48;98180.38;;;27.23;54.51
57574;BME280;43409;48.858;21.906;2022-07-30T12:12:23;98174.00;;;27.19;54.33
57574;BME280;43409;48.858;21.906;2022-07-30T12:14:49;98165.44;;;27.16;54.33
57574;BME280;43409;48.858;21.906;2022-07-30T12:17:15;98163.44;;;27.22;54.00
57574;BME280;43409;48.858;21.906;2022-07-30T12:19:45;98156.03;;;27.28;54.15
57574;BME280;43409;48.858;21.906;2022-07-30T12:22:11;98154.56;;;27.36;53.55
57574;BME280;43409;48.858;21.906;2022-07-30T12:24:36;98154.84;;;27.34;54.24
57574;BME280;43409;48.858;21.906;2022-07-30T12:27:06;98147.31;;;27.36;53.79
57574;BME280;43409;48.858;21.906;2022-07-30T12:29:33;98144.31;;;27.38;54.18
57574;BME280;43409;48.858;21.906;2022-07-30T12:31:59;98134.75;;;27.31;54.46
57574;BME280;43409;48.858;21.906;2022-07-30T12:34:25;98127.63;;;27.36;54.69
57574;BME280;43409;48.858;21.906;2022-07-30T12:36:51;98122.56;;;27.34;54.23
57574;BME280;43409;48.858;21.906;2022-07-30T12:39:19;98128.50;;;27.31;54.59
57574;BME280;43409;48.858;21.906;2022-07-30T12:41:47;98130.94;;;27.32;55.09
57574;BME280;43409;48.858;21.906;2022-07-30T12:47:01;98129.34;;;27.31;56.44
57574;BME280;43409;48.858;21.906;2022-07-30T12:49:31;98136.00;;;27.34;56.31
57574;BME280;43409;48.858;21.906;2022-07-30T12:51:57;98130.25;;;27.41;55.97
57574;BME280;43409;48.858;21.906;2022-07-30T12:54:23;98126.94;;;27.44;55.65
57574;BME280;43409;48.858;21.906;2022-07-30T12:56:59;98126.34;;;27.47;55.71
57574;BME280;43409;48.858;21.906;2022-07-30T12:59:26;98111.16;;;27.51;56.01
57574;BME280;43409;48.858;21.906;2022-07-30T13:01:51;98114.97;;;27.50;55.78
57574;BME280;43409;48.858;21.906;2022-07-30T13:04:18;98114.16;;;27.49;55.80
57574;BME280;43409;48.858;21.906;2022-07-30T13:07:01;98117.03;;;27.53;55.53
57574;BME280;43409;48.858;21.906;2022-07-30T13:09:27;98111.34;;;27.55;55.61
57574;BME280;43409;48.858;21.906;2022-07-30T13:11:52;98109.75;;;27.54;56.09
57574;BME280;43409;48.858;21.906;2022-07-30T13:14:18;98101.38;;;27.55;56.23
57574;BME280;43409;48.858;21.906;2022-07-30T13:16:44;98096.47;;;27.57;56.37
57574;BME280;43409;48.858;21.906;2022-07-30T13:19:10;98082.81;;;27.54;56.34
57574;BME280;43409;48.858;21.906;2022-07-30T13:21:37;98093.00;;;27.57;56.09
57574;BME280;43409;48.858;21.906;2022-07-30T13:24:03;98091.59;;;27.59;55.65
57574;BME280;43409;48.858;21.906;2022-07-30T13:26:29;98084.31;;;27.60;56.16
57574;BME280;43409;48.858;21.906;2022-07-30T13:28:55;98074.63;;;27.59;55.72